createdAt,value
2022-10-09T00:00:39.187Z,90.72
2022-10-09T00:01:39.422Z,91.19
2022-10-09T00:02:39.521Z,90.62
2022-10-09T00:03:39.142Z,89.96
2022-10-09T00:04:39.380Z,89.29
2022-10-09T00:05:39.538Z,89.29
2022-10-09T00:06:39.345Z,89.06
2022-10-09T00:07:39.328Z,88.63
2022-10-09T00:08:39.061Z,88.92
2022-10-09T00:09:39.295Z,89.25
2022-10-09T00:10:39.027Z,89.67
2022-10-09T00:11:39.265Z,89.39
2022-10-09T00:12:38.999Z,89.58
2022-10-09T00:13:39.234Z,90.15
2022-10-09T00:14:39.221Z,90.34
2022-10-09T00:15:38.948Z,90.62
2022-10-09T00:16:39.015Z,90.43
2022-10-09T00:17:39.172Z,90.91
2022-10-09T00:18:39.151Z,90.34
2022-10-09T00:19:38.884Z,90.15
2022-10-09T00:20:39.125Z,90.05
2022-10-09T00:21:39.156Z,90.24
2022-10-09T00:22:39.098Z,89.58
2022-10-09T00:23:39.080Z,89.29
2022-10-09T00:24:39.064Z,89.2
2022-10-09T00:25:39.050Z,89.29
2022-10-09T00:26:39.032Z,89.39
2022-10-09T00:27:38.762Z,89.39
2022-10-09T00:28:41.367Z,89.2
2022-10-09T00:29:38.723Z,89.2
2022-10-09T00:30:39.063Z,89.2
2022-10-09T00:31:38.956Z,88.73
2022-10-09T00:32:38.678Z,88.54
2022-10-09T00:33:38.665Z,88.92
2022-10-09T00:34:38.647Z,88.63
2022-10-09T00:35:38.890Z,88.16
2022-10-09T00:36:38.614Z,88.25
2022-10-09T00:37:38.902Z,88.25
2022-10-09T00:38:38.581Z,87.77
2022-10-09T00:39:38.823Z,88.16
2022-10-09T00:40:38.805Z,88.06
2022-10-09T00:41:38.536Z,87.68
2022-10-09T00:42:38.529Z,87.77
2022-10-09T00:43:38.755Z,87.87
2022-10-09T00:44:38.738Z,87.68
2022-10-09T00:45:38.731Z,87.77
2022-10-09T00:46:38.829Z,87.49
2022-10-09T00:47:38.692Z,87.77
2022-10-09T00:48:38.420Z,88.35
2022-10-09T00:49:38.663Z,88.82
2022-10-09T00:50:38.388Z,89.01
2022-10-09T00:51:38.627Z,88.54
2022-10-09T00:52:38.613Z,88.63
2022-10-09T00:53:38.647Z,89.11
2022-10-09T00:54:38.320Z,89.2
2022-10-09T00:55:38.564Z,89.29
2022-10-09T00:56:38.289Z,89.96
2022-10-09T00:57:38.532Z,89.86
2022-10-09T00:58:38.510Z,89.58
2022-10-09T00:59:38.500Z,88.63
2022-10-09T01:00:38.479Z,88.06
2022-10-09T01:01:38.632Z,88.16
2022-10-09T01:02:38.594Z,87.77
2022-10-09T01:03:38.181Z,87.97
2022-10-09T01:04:38.162Z,87.87
2022-10-09T01:05:38.145Z,87.77
2022-10-09T01:06:38.385Z,87.87
2022-10-09T01:07:38.113Z,87.97
2022-10-09T01:08:38.352Z,87.97
2022-10-09T01:09:38.393Z,87.49
2022-10-09T01:10:38.067Z,87.59
2022-10-09T01:11:38.308Z,87.3
2022-10-09T01:12:38.035Z,87.4
2022-10-09T01:13:38.272Z,87.4
2022-10-09T01:14:38.255Z,87.3
2022-10-09T01:15:38.355Z,87.3
2022-10-09T01:16:37.966Z,87.3
2022-10-09T01:17:37.953Z,87.3
2022-10-09T01:18:38.194Z,87.77
2022-10-09T01:19:37.919Z,87.77
2022-10-09T01:20:38.198Z,87.49
2022-10-09T01:21:37.889Z,87.49
2022-10-09T01:22:37.879Z,87.87
2022-10-09T01:23:38.109Z,87.77
2022-10-09T01:24:38.094Z,88.16
2022-10-09T01:25:38.127Z,88.92
2022-10-09T01:26:38.072Z,88.63
2022-10-09T01:27:38.043Z,88.54
2022-10-09T01:28:37.968Z,88.73
2022-10-09T01:29:37.771Z,89.2
2022-10-09T01:30:37.870Z,89.48
2022-10-09T01:31:37.726Z,89.48
2022-10-09T01:32:37.963Z,89.01
2022-10-09T01:33:37.694Z,89.2
2022-10-09T01:34:37.672Z,89.01
2022-10-09T01:35:37.912Z,89.29
2022-10-09T01:36:37.901Z,89.01
2022-10-09T01:37:37.630Z,88.68
2022-10-09T01:38:37.610Z,88.82
2022-10-09T01:39:37.847Z,89.29
2022-10-09T01:40:37.577Z,89.2
2022-10-09T01:41:37.863Z,89.72
2022-10-09T01:42:37.805Z,90.2
2022-10-09T01:43:37.784Z,90.2
2022-10-09T01:44:37.772Z,89.91
2022-10-09T01:45:37.753Z,90.1
2022-10-09T01:46:37.851Z,90.1
2022-10-09T01:47:37.722Z,89.63
2022-10-09T01:48:37.453Z,89.63
2022-10-09T01:49:37.682Z,89.53
2022-10-09T01:50:37.418Z,89.63
2022-10-09T01:51:37.396Z,89.15
2022-10-09T01:52:42.772Z,89.82
2022-10-09T01:53:37.367Z,89.44
2022-10-09T01:54:37.347Z,89.25
2022-10-09T01:55:37.598Z,89.15
2022-10-09T01:56:37.314Z,88.96
2022-10-09T01:57:37.730Z,88.11
2022-10-09T01:58:37.284Z,87.92
2022-10-09T01:59:37.266Z,87.54
2022-10-09T02:00:37.508Z,87.64
2022-10-09T02:01:37.730Z,87.26
2022-10-09T02:02:37.614Z,87.45
2022-10-09T02:03:37.461Z,87.54
2022-10-09T02:04:37.438Z,88.11
2022-10-09T02:05:37.424Z,88.78
2022-10-09T02:06:37.149Z,88.3
2022-10-09T02:07:37.138Z,89.34
2022-10-09T02:08:37.119Z,89.34
2022-10-09T02:09:37.374Z,89.15
2022-10-09T02:10:37.338Z,89.44
2022-10-09T02:11:37.069Z,89.34
2022-10-09T02:12:37.305Z,89.25
2022-10-09T02:13:37.347Z,89.44
2022-10-09T02:14:37.024Z,89.44
2022-10-09T02:15:37.165Z,89.63
2022-10-09T02:16:39.493Z,89.72
2022-10-09T02:17:37.228Z,89.63
2022-10-09T02:18:36.957Z,89.72
2022-10-09T02:19:36.941Z,89.44
2022-10-09T02:20:37.179Z,89.34
2022-10-09T02:21:36.906Z,88.78
2022-10-09T02:22:37.146Z,89.25
2022-10-09T02:23:36.872Z,89.25
2022-10-09T02:24:36.857Z,89.25
2022-10-09T02:25:36.838Z,89.15
2022-10-09T02:26:36.821Z,89.25
2022-10-09T02:27:36.806Z,89.06
2022-10-09T02:28:36.904Z,89.34
2022-10-09T02:29:37.078Z,89.25
2022-10-09T02:30:37.010Z,89.15
2022-10-09T02:31:36.889Z,89.06
2022-10-09T02:32:36.719Z,89.72
2022-10-09T02:33:36.959Z,89.82
2022-10-09T02:34:36.941Z,90.2
2022-10-09T02:35:36.673Z,90.86
2022-10-09T02:36:36.912Z,90.77
2022-10-09T02:37:36.638Z,90.29
2022-10-09T02:38:36.876Z,90.2
2022-10-09T02:39:36.863Z,90.01
2022-10-09T02:40:36.850Z,90.1
2022-10-09T02:41:36.831Z,90.77
2022-10-09T02:42:36.812Z,90.67
2022-10-09T02:43:36.541Z,91.05
2022-10-09T02:44:36.927Z,90.95
2022-10-09T02:45:36.810Z,91.05
2022-10-09T02:46:36.923Z,90.77
2022-10-09T02:47:36.472Z,90.86
2022-10-09T02:48:36.455Z,90.95
2022-10-09T02:49:36.696Z,90.39
2022-10-09T02:50:36.427Z,90.01
2022-10-09T02:51:36.673Z,89.63
2022-10-09T02:52:36.389Z,89.53
2022-10-09T02:53:36.375Z,89.53
2022-10-09T02:54:36.618Z,89.82
2022-10-09T02:55:36.339Z,89.53
2022-10-09T02:56:41.179Z,89.15
2022-10-09T02:57:36.562Z,89.72
2022-10-09T02:58:36.291Z,89.91
2022-10-09T02:59:36.274Z,88.78
2022-10-09T03:00:36.262Z,88.78
2022-10-09T03:01:36.885Z,89.25
2022-10-09T03:02:36.729Z,89.15
2022-10-09T03:03:36.211Z,89.34
2022-10-09T03:04:36.448Z,89.15
2022-10-09T03:05:36.996Z,89.34
2022-10-09T03:06:36.158Z,89.63
2022-10-09T03:07:36.396Z,89.44
2022-10-09T03:08:36.131Z,89.72
2022-10-09T03:09:36.495Z,89.63
2022-10-09T03:10:36.350Z,89.72
2022-10-09T03:11:36.326Z,90.1
2022-10-09T03:12:36.319Z,90.39
2022-10-09T03:13:36.305Z,90.29
2022-10-09T03:14:36.282Z,90.53
2022-10-09T03:15:36.265Z,90.48
2022-10-09T03:16:36.352Z,90.58
2022-10-09T03:17:36.276Z,90.95
2022-10-09T03:18:35.983Z,90.86
2022-10-09T03:19:36.194Z,91.57
2022-10-09T03:20:35.929Z,91.81
2022-10-09T03:21:36.163Z,92.05
2022-10-09T03:22:36.178Z,91.67
2022-10-09T03:23:36.126Z,91.1
2022-10-09T03:24:36.113Z,91.48
2022-10-09T03:25:36.076Z,90.91
2022-10-09T03:26:36.315Z,91.19
2022-10-09T03:27:36.045Z,90.72
2022-10-09T03:28:36.458Z,91.1
2022-10-09T03:29:36.002Z,91
2022-10-09T03:30:36.253Z,91.67
2022-10-09T03:31:54.315Z,90.91
2022-10-09T03:32:35.964Z,90.63
2022-10-09T03:49:31.317Z,91.19
2022-10-09T03:50:31.041Z,91.1
2022-10-09T03:51:31.224Z,90.44
2022-10-09T03:52:31.205Z,90.53
2022-10-09T03:53:31.196Z,90.53
2022-10-09T03:54:30.916Z,90.63
2022-10-09T03:55:30.892Z,90.15
2022-10-09T03:56:31.143Z,90.06
2022-10-09T03:57:30.857Z,90.06
2022-10-09T03:58:31.093Z,90.15
2022-10-09T03:59:31.078Z,90.15
2022-10-09T04:00:30.877Z,90.15
2022-10-09T04:01:31.152Z,90.25
2022-10-09T04:02:30.890Z,90.25
2022-10-09T04:03:30.757Z,90.15
2022-10-09T04:04:30.984Z,90.15
2022-10-09T04:05:31.014Z,90.15
2022-10-09T04:06:30.953Z,89.96
2022-10-09T04:07:30.934Z,90.15
2022-10-09T04:08:30.916Z,90.34
2022-10-09T04:09:30.652Z,89.58
2022-10-09T04:10:30.877Z,89.39
2022-10-09T04:11:30.863Z,89.49
2022-10-09T04:12:30.846Z,89.49
2022-10-09T04:13:30.837Z,89.39
2022-10-09T04:14:30.552Z,89.2
2022-10-09T04:15:30.537Z,89.39
2022-10-09T04:16:30.676Z,89.49
2022-10-09T04:17:30.756Z,89.49
2022-10-09T04:18:30.741Z,89.68
2022-10-09T04:19:30.619Z,89.3
2022-10-09T04:20:30.705Z,89.58
2022-10-09T04:21:30.748Z,89.3
2022-10-09T04:22:30.673Z,89.77
2022-10-09T04:23:30.400Z,89.2
2022-10-09T04:24:30.380Z,89.39
2022-10-09T04:25:30.620Z,89.2
2022-10-09T04:26:30.602Z,89.39
2022-10-09T04:27:30.584Z,89.49
2022-10-09T04:28:30.788Z,89.39
2022-10-09T04:29:30.292Z,89.58
2022-10-09T04:30:30.273Z,89.68
2022-10-09T04:31:30.396Z,90.72
2022-10-09T04:32:30.497Z,90.53
2022-10-09T04:33:30.480Z,91.1
2022-10-09T04:34:30.459Z,91
2022-10-09T04:35:30.188Z,90.53
2022-10-09T04:36:30.433Z,90.63
2022-10-09T04:37:30.460Z,91.48
2022-10-09T04:38:30.138Z,91.38
2022-10-09T04:39:30.381Z,91.57
2022-10-09T04:40:30.103Z,91.29
2022-10-09T04:41:32.592Z,91.57
2022-10-09T04:42:30.069Z,92.05
2022-10-09T04:43:30.304Z,92.05
2022-10-09T04:44:30.442Z,91.53
2022-10-09T04:45:30.405Z,91.57
2022-10-09T04:46:30.259Z,92.43
2022-10-09T04:47:29.984Z,92.14
2022-10-09T04:48:30.231Z,92.24
2022-10-09T04:49:30.206Z,92.05
2022-10-09T04:50:30.190Z,92.14
2022-10-09T04:51:30.169Z,92
2022-10-09T04:52:30.156Z,92.57
2022-10-09T04:53:30.188Z,92.57
2022-10-09T04:54:30.120Z,92.61
2022-10-09T04:55:29.844Z,92.71
2022-10-09T04:56:30.086Z,92.76
2022-10-09T04:57:30.064Z,92.57
2022-10-09T04:58:30.051Z,92.8
2022-10-09T04:59:30.044Z,92.76
2022-10-09T05:00:30.023Z,92.57
2022-10-09T05:01:33.044Z,92.76
2022-10-09T05:02:30.146Z,92.94
2022-10-09T05:03:29.706Z,92.94
2022-10-09T05:04:29.692Z,92.99
2022-10-09T05:05:30.058Z,92.66
2022-10-09T05:06:30.043Z,92.71
2022-10-09T05:07:30.020Z,92.94
2022-10-09T05:08:30.008Z,92.85
2022-10-09T05:09:30.038Z,92.94
2022-10-09T05:10:29.971Z,93.32
2022-10-09T05:11:29.699Z,93.51
2022-10-09T05:12:29.683Z,93.32
2022-10-09T05:13:29.919Z,93.32
2022-10-09T05:14:29.650Z,93.7
2022-10-09T05:15:29.882Z,93.23
2022-10-09T05:16:29.721Z,93.51
2022-10-09T05:17:30.072Z,93.13
2022-10-09T05:18:29.577Z,93.61
2022-10-09T05:19:29.728Z,93.23
2022-10-09T05:20:29.543Z,93.13
2022-10-09T05:21:29.526Z,93.23
2022-10-09T05:22:29.764Z,93.23
2022-10-09T05:23:29.493Z,93.32
2022-10-09T05:24:29.746Z,93.32
2022-10-09T05:25:29.763Z,93.51
2022-10-09T05:26:29.699Z,93.51
2022-10-09T05:27:29.422Z,93.13
2022-10-09T05:28:29.561Z,93.51
2022-10-09T05:29:29.392Z,93.42
2022-10-09T05:30:29.629Z,93.61
2022-10-09T05:31:29.809Z,92.76
2022-10-09T05:32:29.590Z,93.04
2022-10-09T05:33:29.321Z,92.85
2022-10-09T05:34:29.301Z,93.13
2022-10-09T05:35:29.285Z,92.76
2022-10-09T05:36:29.525Z,92.94
2022-10-09T05:37:29.508Z,92.85
2022-10-09T05:38:29.484Z,92.76
2022-10-09T05:39:29.472Z,93.13
2022-10-09T05:40:31.487Z,92.66
2022-10-09T05:41:29.484Z,92.94
2022-10-09T05:42:29.420Z,92.57
2022-10-09T05:43:29.402Z,92.57
2022-10-09T05:44:29.408Z,92.76
2022-10-09T05:45:29.557Z,92.76
2022-10-09T05:46:29.350Z,92.85
2022-10-09T05:47:29.076Z,92.94
2022-10-09T05:48:29.058Z,92.38
2022-10-09T05:49:29.863Z,92.57
2022-10-09T05:50:29.845Z,92.38
2022-10-09T05:51:29.834Z,92.1
2022-10-09T05:52:30.064Z,92.19
2022-10-09T05:53:29.793Z,92.19
2022-10-09T05:54:30.040Z,92.29
2022-10-09T05:55:30.017Z,92.19
2022-10-09T05:56:30.006Z,91.76
2022-10-09T05:57:30.031Z,91.72
2022-10-09T05:58:29.962Z,91.72
2022-10-09T05:59:29.946Z,91.53
2022-10-09T06:00:29.692Z,91.72
2022-10-09T06:01:30.231Z,92.05
2022-10-09T06:02:29.854Z,92
2022-10-09T06:03:29.619Z,91.53
2022-10-09T06:04:29.876Z,91.43
2022-10-09T06:05:29.587Z,91.57
2022-10-09T06:06:29.827Z,91.72
2022-10-09T06:07:29.810Z,91.76
2022-10-09T06:08:29.788Z,91.48
2022-10-09T06:09:29.615Z,91.57
2022-10-09T06:10:34.660Z,91.29
2022-10-09T06:11:29.968Z,91.1
2022-10-09T06:12:30.200Z,91.19
2022-10-09T06:13:30.251Z,91.19
2022-10-09T06:14:30.167Z,91.38
2022-10-09T06:15:30.150Z,91.57
2022-10-09T06:16:30.255Z,91.29
2022-10-09T06:17:30.121Z,90.72
2022-10-09T06:18:29.843Z,91.1
2022-10-09T06:19:30.085Z,91
2022-10-09T06:20:29.808Z,91.19
2022-10-09T06:21:30.049Z,91.19
2022-10-09T06:22:30.113Z,90.72
2022-10-09T06:23:30.011Z,90.53
2022-10-09T06:24:31.912Z,90.81
2022-10-09T06:25:29.977Z,90.44
2022-10-09T06:26:29.964Z,90.44
2022-10-09T06:27:29.955Z,90.72
2022-10-09T06:28:30.039Z,90.81
2022-10-09T06:29:29.957Z,90.06
2022-10-09T06:30:31.910Z,90.06
2022-10-09T06:31:29.911Z,90.15
2022-10-09T06:32:29.605Z,89.68
2022-10-09T06:33:29.842Z,89.39
2022-10-09T06:34:29.576Z,89.2
2022-10-09T06:35:29.805Z,88.92
2022-10-09T06:36:29.536Z,89.01
2022-10-09T06:37:29.516Z,89.3
2022-10-09T06:38:29.501Z,88.92
2022-10-09T06:39:29.743Z,88.64
2022-10-09T06:40:29.552Z,88.26
2022-10-09T06:41:29.463Z,88.26
2022-10-09T06:42:29.690Z,88.17
2022-10-09T06:43:29.686Z,88.07
2022-10-09T06:44:29.656Z,88.17
2022-10-09T06:45:29.682Z,87.98
2022-10-09T06:46:29.472Z,87.59
2022-10-09T06:47:29.354Z,87.4
2022-10-09T06:48:29.331Z,87.31
2022-10-09T06:49:29.565Z,87.4
2022-10-09T06:50:29.617Z,87.21
2022-10-09T06:51:29.279Z,86.88
2022-10-09T06:52:29.259Z,87.35
2022-10-09T06:53:29.499Z,86.79
2022-10-09T06:54:29.228Z,86.79
2022-10-09T06:55:31.012Z,86.41
2022-10-09T06:56:29.451Z,86.98
2022-10-09T06:57:29.430Z,85.93
2022-10-09T06:58:29.160Z,86.12
2022-10-09T06:59:29.399Z,85.74
2022-10-09T07:00:29.167Z,86.12
2022-10-09T07:01:29.650Z,85.27
2022-10-09T07:02:29.454Z,85.46
2022-10-09T07:03:29.332Z,84.89
2022-10-09T07:04:29.317Z,84.89
2022-10-09T07:05:29.297Z,84.8
2022-10-09T07:06:29.281Z,84.51
2022-10-09T07:07:29.008Z,83.85
2022-10-09T07:08:29.250Z,84.13
2022-10-09T07:09:29.231Z,84.32
2022-10-09T07:10:29.013Z,83.8
2022-10-09T07:11:28.940Z,83.89
2022-10-09T07:12:29.184Z,83.51
2022-10-09T07:13:28.906Z,83.32
2022-10-09T07:14:29.148Z,82.85
2022-10-09T07:15:29.092Z,83.23
2022-10-09T07:16:29.314Z,82.94
2022-10-09T07:17:29.151Z,83.04
2022-10-09T07:18:29.080Z,82.94
2022-10-09T07:19:29.077Z,82.85
2022-10-09T07:20:28.844Z,82.94
2022-10-09T07:21:28.784Z,82.75
2022-10-09T07:22:29.671Z,82.09
2022-10-09T07:23:29.009Z,82.94
2022-10-09T07:24:28.727Z,82.75
2022-10-09T07:25:28.715Z,82.85
2022-10-09T07:26:28.950Z,82.47
2022-10-09T07:27:28.934Z,82.56
2022-10-09T07:28:29.065Z,81.9
2022-10-09T07:29:28.642Z,82.18
2022-10-09T07:30:28.746Z,81.99
2022-10-09T07:31:28.854Z,81.99
2022-10-09T07:32:28.851Z,82.18
2022-10-09T07:33:28.889Z,82.09
2022-10-09T07:34:28.565Z,82.09
2022-10-09T07:35:28.806Z,82.28
2022-10-09T07:36:28.535Z,81.62
2022-10-09T07:37:28.772Z,81.56
2022-10-09T07:38:28.755Z,81.75
2022-10-09T07:39:28.491Z,82.04
2022-10-09T07:40:28.722Z,81.66
2022-10-09T07:41:28.710Z,81.27
2022-10-09T07:42:28.692Z,81.18
2022-10-09T07:43:28.677Z,81.18
2022-10-09T07:44:28.663Z,80.8
2022-10-09T07:45:28.647Z,80.52
2022-10-09T07:46:34.653Z,80.33
2022-10-09T07:47:28.358Z,80.52
2022-10-09T07:48:28.596Z,80.14
2022-10-09T07:49:28.646Z,80.14
2022-10-09T07:50:28.310Z,79.95
2022-10-09T07:51:28.295Z,80.27
2022-10-09T07:52:28.276Z,80.18
2022-10-09T07:53:29.720Z,80.08
2022-10-09T07:54:28.501Z,80.27
2022-10-09T07:55:28.492Z,79.61
2022-10-09T07:56:28.478Z,79.33
2022-10-09T07:57:28.202Z,79.04
2022-10-09T07:58:28.439Z,79.14
2022-10-09T07:59:28.430Z,79.33
2022-10-09T08:00:28.153Z,79.42
2022-10-09T08:01:28.535Z,79.61
2022-10-09T08:02:28.551Z,79.33
2022-10-09T08:03:28.368Z,78.85
2022-10-09T08:04:28.350Z,78.85
2022-10-09T08:05:28.433Z,78.75
2022-10-09T08:06:28.324Z,78.75
2022-10-09T08:07:31.405Z,78.75
2022-10-09T08:08:28.292Z,79.04
2022-10-09T08:09:28.015Z,78.85
2022-10-09T08:10:28.037Z,78.75
2022-10-09T08:11:28.246Z,78.61
2022-10-09T08:12:28.232Z,78.51
2022-10-09T08:13:27.952Z,77.75
2022-10-09T08:14:28.200Z,78.42
2022-10-09T08:15:28.043Z,77.84
2022-10-09T08:16:28.189Z,77.94
2022-10-09T08:17:28.152Z,78.23
2022-10-09T08:18:27.884Z,77.66
2022-10-09T08:19:28.122Z,77.66
2022-10-09T08:20:28.111Z,77.94
2022-10-09T08:21:28.161Z,77.94
2022-10-09T08:22:27.839Z,77.84
2022-10-09T08:23:28.061Z,77.75
2022-10-09T08:24:27.797Z,77.7
2022-10-09T08:25:28.032Z,78.17
2022-10-09T08:26:28.021Z,77.51
2022-10-09T08:27:27.755Z,77.6
2022-10-09T08:28:27.936Z,77.31
2022-10-09T08:29:27.724Z,77.31
2022-10-09T08:30:27.715Z,77.7
2022-10-09T08:31:28.235Z,77.89
2022-10-09T08:32:27.938Z,77.31
2022-10-09T08:33:27.925Z,77.31
2022-10-09T08:34:27.905Z,77.6
2022-10-09T08:35:31.102Z,77.31
2022-10-09T08:36:27.617Z,77.03
2022-10-09T08:37:27.907Z,77.22
2022-10-09T08:38:48.948Z,76.84
2022-10-09T08:39:27.832Z,76.93
2022-10-09T08:40:27.820Z,77.03
2022-10-09T08:41:27.810Z,76.56
2022-10-09T08:42:27.792Z,76.46
2022-10-09T08:43:27.772Z,76.27
2022-10-09T08:44:27.766Z,76.59
2022-10-09T08:45:27.503Z,76.12
2022-10-09T08:46:27.839Z,76.21
2022-10-09T08:47:27.463Z,75.93
2022-10-09T08:48:27.448Z,75.64
2022-10-09T08:49:27.840Z,75.45
2022-10-09T08:50:27.426Z,75.74
2022-10-09T08:51:27.405Z,75.11
2022-10-09T08:52:27.656Z,74.82
2022-10-09T08:53:27.788Z,74.92
2022-10-09T08:54:27.624Z,75.02
2022-10-09T08:55:27.354Z,75.02
2022-10-09T08:56:27.594Z,75.3
2022-10-09T08:57:27.582Z,74.54
2022-10-09T08:58:27.567Z,74.54
2022-10-09T08:59:27.588Z,74.82
2022-10-09T09:00:27.298Z,74.44
2022-10-09T09:01:27.630Z,74.92
2022-10-09T09:02:27.630Z,74.48
2022-10-09T09:03:28.037Z,74.29
2022-10-09T09:04:27.764Z,73.72
2022-10-09T09:05:27.755Z,73.82
2022-10-09T09:06:27.994Z,73.72
2022-10-09T09:07:27.983Z,73.15
2022-10-09T09:08:27.976Z,73.82
2022-10-09T09:09:28.005Z,73.25
2022-10-09T09:10:27.941Z,73.19
2022-10-09T09:11:27.927Z,73
2022-10-09T09:12:27.658Z,73.19
2022-10-09T09:13:27.654Z,72.9
2022-10-09T09:14:27.888Z,73
2022-10-09T09:15:27.885Z,73.28
2022-10-09T09:16:27.739Z,73.19
2022-10-09T09:17:27.854Z,73.19
2022-10-09T09:18:27.836Z,73.19
2022-10-09T09:19:27.568Z,72.71
2022-10-09T09:20:27.564Z,73.28
2022-10-09T09:21:27.554Z,72.9
2022-10-09T09:22:27.789Z,72.05
2022-10-09T09:23:27.776Z,72.33
2022-10-09T09:24:27.762Z,71.67
2022-10-09T09:25:27.797Z,71.8
2022-10-09T09:26:27.478Z,71.89
2022-10-09T09:27:27.727Z,72.08
2022-10-09T09:28:27.551Z,71.89
2022-10-09T09:29:27.714Z,71.89
2022-10-09T09:30:27.720Z,72.27
2022-10-09T09:31:27.962Z,72.56
2022-10-09T09:32:27.679Z,72.08
2022-10-09T09:33:27.399Z,72.46
2022-10-09T09:34:27.381Z,71.93
2022-10-09T09:35:27.627Z,72.41
2022-10-09T09:36:27.359Z,72.21
2022-10-09T09:37:27.605Z,72.6
2022-10-09T09:38:27.332Z,72.31
2022-10-09T09:40:51.898Z,73.68
2022-10-09T09:41:51.788Z,73.77
2022-10-09T09:42:52.207Z,74.16
2022-10-09T09:43:51.760Z,75.11
2022-10-09T09:44:51.745Z,75.87
2022-10-09T09:45:51.736Z,76.92
2022-10-09T09:46:51.929Z,77.78
2022-10-09T09:47:52.347Z,79.3
2022-10-09T09:48:51.444Z,81.68
2022-10-09T09:49:51.686Z,84.2
2022-10-09T09:51:27.233Z,86.4
2022-10-09T09:51:51.663Z,87.16
2022-10-09T09:52:51.659Z,88.21
2022-10-09T09:53:51.387Z,89.36
2022-10-09T09:54:51.377Z,94.98
2022-10-09T09:55:51.361Z,96.89
2022-10-09T09:57:22.227Z,99.99
2022-10-09T09:57:52.085Z,99.99
2022-10-09T09:58:51.334Z,99.99
2022-10-09T09:59:51.323Z,99.99
2022-10-09T10:00:51.654Z,99.99
2022-10-09T10:01:51.448Z,99.99
2022-10-09T10:02:52.229Z,99.99
2022-10-09T10:03:51.277Z,99.99
2022-10-09T10:04:51.525Z,99.99
2022-10-09T10:05:51.512Z,99.99
2022-10-09T10:06:51.504Z,99.99
2022-10-09T10:07:51.232Z,99.99
2022-10-09T10:08:51.478Z,99.99
2022-10-09T10:09:51.474Z,99.99
2022-10-09T10:10:51.464Z,99.99
2022-10-09T10:11:51.192Z,99.99
2022-10-09T10:12:52.291Z,99.99
2022-10-09T10:13:51.432Z,99.99
2022-10-09T10:14:51.162Z,99.99
2022-10-09T10:15:51.265Z,99.99
2022-10-09T10:16:51.403Z,99.99
2022-10-09T10:17:51.123Z,99.99
2022-10-09T10:18:51.375Z,99.99
2022-10-09T10:19:51.360Z,99.99
2022-10-09T10:20:51.354Z,99.99
2022-10-09T10:21:51.083Z,99.99
2022-10-09T10:22:51.951Z,99.99
2022-10-09T10:23:51.177Z,99.99
2022-10-09T10:24:51.311Z,99.99
2022-10-09T10:25:51.303Z,99.99
2022-10-09T10:26:51.293Z,99.99
2022-10-09T10:27:51.840Z,99.99
2022-10-09T10:28:51.323Z,99.33
2022-10-09T10:29:50.999Z,98.08
2022-10-09T10:30:50.991Z,96.66
2022-10-09T10:31:51.000Z,98.37
2022-10-09T10:32:51.226Z,99.99
2022-10-09T10:33:51.212Z,99.99
2022-10-09T10:34:51.205Z,96.56
2022-10-09T10:35:51.195Z,94.65
2022-10-09T10:36:51.189Z,93.31
2022-10-09T10:37:51.994Z,91.69
2022-10-09T10:38:50.911Z,90.78
2022-10-09T10:39:51.160Z,89.11
2022-10-09T10:40:51.145Z,89.49
2022-10-09T10:41:51.137Z,90.49
2022-10-09T10:42:50.870Z,87.05
2022-10-09T10:43:50.864Z,83.8
2022-10-09T10:44:51.179Z,81.51
2022-10-09T10:45:51.101Z,81.32
2022-10-09T10:46:51.513Z,81.76
2022-10-09T10:47:52.070Z,83.04
2022-10-09T10:48:50.833Z,83.23
2022-10-09T10:49:51.063Z,83.23
2022-10-09T10:50:51.045Z,81.7
2022-10-09T10:51:51.046Z,78.83
2022-10-09T10:52:51.909Z,78.55
2022-10-09T10:53:51.171Z,78.64
2022-10-09T10:54:51.039Z,78.83
2022-10-09T10:55:51.003Z,77.87
2022-10-09T10:56:50.735Z,77.87
2022-10-09T10:57:51.562Z,77.97
2022-10-09T10:58:50.973Z,76.82
2022-10-09T10:59:50.707Z,77.01
2022-10-09T11:00:51.113Z,77.11
2022-10-09T11:01:50.685Z,76.25
2022-10-09T11:02:51.085Z,76.16
2022-10-09T11:03:50.981Z,75.1
2022-10-09T11:04:51.039Z,75.24
2022-10-09T11:05:50.653Z,76.67
2022-10-09T11:06:50.895Z,75.71
2022-10-09T11:07:50.888Z,75.52
2022-10-09T11:08:50.619Z,75.52
2022-10-09T11:09:50.872Z,73.52
2022-10-09T11:10:50.855Z,72.47
2022-10-09T11:11:50.591Z,72.56
2022-10-09T11:12:50.923Z,71.99
2022-10-09T11:13:50.577Z,71.03
2022-10-09T11:14:50.821Z,71.13
2022-10-09T11:15:50.867Z,71.42
2022-10-09T11:16:50.970Z,70.65
2022-10-09T11:17:50.539Z,70.75
2022-10-09T11:18:50.779Z,71.7
2022-10-09T11:19:50.516Z,72.56
2022-10-09T11:20:50.764Z,72.56
2022-10-09T11:21:50.505Z,73.23
2022-10-09T11:22:51.533Z,72.56
2022-10-09T11:23:50.742Z,70.94
2022-10-09T11:24:50.478Z,70.65
2022-10-09T11:25:50.465Z,69.98
2022-10-09T11:26:50.451Z,69.41
2022-10-09T11:27:50.448Z,69.31
2022-10-09T11:28:50.618Z,68.64
2022-10-09T11:29:50.430Z,68.64
2022-10-09T11:30:50.676Z,67.88
2022-10-09T11:31:50.615Z,67.78
2022-10-09T11:32:50.713Z,68.35
2022-10-09T11:33:50.647Z,68.84
2022-10-09T11:34:50.793Z,69.6
2022-10-09T11:35:50.372Z,67.97
2022-10-09T11:36:50.620Z,68.64
2022-10-09T11:37:50.917Z,67.88
2022-10-09T11:38:50.344Z,67.53
2022-10-09T11:39:50.591Z,66.96
2022-10-09T11:40:50.583Z,66.57
2022-10-09T11:41:50.317Z,66.76
2022-10-09T11:42:50.567Z,66.96
2022-10-09T11:43:50.559Z,67.05
2022-10-09T11:44:50.616Z,67.14
2022-10-09T11:45:50.703Z,66
2022-10-09T11:46:50.277Z,65.71
2022-10-09T11:47:51.155Z,65.58
2022-10-09T11:48:50.568Z,65.81
2022-10-09T11:49:50.248Z,65.23
2022-10-09T11:50:50.241Z,65.87
2022-10-09T11:51:50.232Z,65.87
2022-10-09T11:52:50.480Z,66.19
2022-10-09T11:53:50.466Z,65.3
2022-10-09T11:54:50.205Z,64.75
2022-10-09T11:55:50.451Z,65.58
2022-10-09T11:56:50.188Z,65.3
2022-10-09T11:57:50.968Z,65.3
2022-10-09T11:58:50.430Z,65.11
2022-10-09T11:59:50.158Z,65.68
2022-10-09T12:00:50.352Z,65.3
2022-10-09T12:01:50.143Z,65.87
2022-10-09T12:02:50.462Z,66.19
2022-10-09T12:03:50.127Z,66.35
2022-10-09T12:04:57.578Z,66.28
2022-10-09T12:05:50.114Z,66.16
2022-10-09T12:06:50.107Z,65.33
2022-10-09T12:07:50.094Z,64.43
2022-10-09T12:08:50.344Z,64.25
2022-10-09T12:09:50.074Z,63
2022-10-09T12:10:50.321Z,62.71
2022-10-09T12:11:50.057Z,63.39
2022-10-09T12:12:50.798Z,63.57
2022-10-09T12:13:50.294Z,63.86
2022-10-09T12:14:50.291Z,63.1
2022-10-09T12:15:50.287Z,62.14
2022-10-09T12:16:50.199Z,61.57
2022-10-09T12:17:50.098Z,61.66
2022-10-09T12:18:50.255Z,62.62
2022-10-09T12:19:49.988Z,63.19
2022-10-09T12:20:50.286Z,63.29
2022-10-09T12:21:50.230Z,63.1
2022-10-09T12:23:31.848Z,63.19
2022-10-09T12:23:50.210Z,63.19
2022-10-09T12:24:50.198Z,62.43
2022-10-09T12:25:49.941Z,62.24
2022-10-09T12:26:50.185Z,62.04
2022-10-09T12:27:49.919Z,61.66
2022-10-09T12:28:50.365Z,61.47
2022-10-09T12:29:50.165Z,60.71
2022-10-09T12:30:50.494Z,61.09
2022-10-09T12:31:50.148Z,60.9
2022-10-09T12:32:51.017Z,60.04
2022-10-09T12:33:49.888Z,59.47
2022-10-09T12:34:50.113Z,59.47
2022-10-09T12:35:49.867Z,60.42
2022-10-09T12:36:50.146Z,60.33
2022-10-09T12:37:50.096Z,60.23
2022-10-09T12:38:50.081Z,60.13
2022-10-09T12:39:50.088Z,59.18
2022-10-09T12:40:49.808Z,58.22
2022-10-09T12:41:50.061Z,57.93
2022-10-09T12:42:50.670Z,57.93
2022-10-09T12:43:49.828Z,58.61
2022-10-09T12:44:50.067Z,58.22
2022-10-09T12:45:50.143Z,58.03
2022-10-09T12:46:50.007Z,58.41
2022-10-09T12:47:50.004Z,57.93
2022-10-09T12:48:50.011Z,57.55
2022-10-09T12:49:49.986Z,57.55
2022-10-09T12:50:49.720Z,57.36
2022-10-09T12:51:52.536Z,56.88
2022-10-09T12:52:50.907Z,57.65
2022-10-09T12:53:49.949Z,57.84
2022-10-09T12:54:49.681Z,58.22
2022-10-09T12:55:49.675Z,58.12
2022-10-09T12:56:49.923Z,58.61
2022-10-09T12:57:49.916Z,58.61
2022-10-09T12:58:49.904Z,59.37
2022-10-09T12:59:49.898Z,58.98
2022-10-09T13:00:49.895Z,59.47
2022-10-09T13:01:50.116Z,59.56
2022-10-09T13:02:50.806Z,59.66
2022-10-09T13:03:49.862Z,59.75
2022-10-09T13:04:49.596Z,60.33
2022-10-09T13:05:49.846Z,60.42
2022-10-09T13:06:49.577Z,60.71
2022-10-09T13:07:50.982Z,60.9
2022-10-09T13:08:49.839Z,60.8
2022-10-09T13:09:49.554Z,60.8
2022-10-09T13:10:49.798Z,60.52
2022-10-09T13:11:49.796Z,60.23
2022-10-09T13:12:49.982Z,60.9